Portada
METAR-TAF:

METAR-TAF

Aeroports :

Mae Sot, Tailàndia

latitud: 16-40N, longitud: 098-33E, altitud: 196 m

Observació

L'informe es va fer fa 1 hora i 1 minuts, a les 04:00 UTC
Vent 8 kt del Nord-Est, variant entre Nord i Est/Sud-Est
Temperatura 27°C
Humitat 62%
Pressió 1018 hPa
Visibilitat 10 km o més
Escasses núvols a una alçada de 3000 ft

METAR: VTPM 140400Z 05008KT 360V110 9999 FEW030 27/19 Q1018 NOSIG

Hora: 12:01 (05:01 UTC)

Pronòstic

L'informe es va fer fa 6 hores i 1 minuts, a les 23:00 UTC
Pronòstic vàlid del 14 a les 00 UTC al 14 a les 24 UTC
Vent 5 kt del Est/Nord-Est
Visibilitat: 5000 m
Escasses núvols a una alçada de 3000 ft
boirina
Evolucionant progressivament
l' 14 a les 01 UTC al 14 a les 03 UTC
Visibilitat 10 km o més

TAF: VTPM 132300Z 1400/1424 06005KT 5000 BR FEW030 BECMG 1401/1403 9999 NSW

Observacions i pronòstics meteorològics de més de 4000 aeroports (METAR i TAF).

Les estacions disponibles són els punts grocs i vermells al mapa.

Posi el ratolí al punt desitjat per veure el nom de l'estació.

Feu clic per veure les observacions i els pronòstics meteorològics.

Per canviar el mapa: feu clic els botons verds amb una creu de color negre per apropar; al botó verd amb un guió per allunyar la imatge; o en les fletxes verdes per a mapes adjacents.


METAR-TAF: